createdAt,value
2023-01-22T00:01:17.698Z,3.13
2023-01-22T00:03:46.994Z,1.55
2023-01-22T00:06:15.260Z,1.23
2023-01-22T00:08:44.066Z,1.70
2023-01-22T00:11:12.431Z,2.33
2023-01-22T00:13:41.017Z,2.25
2023-01-22T00:16:10.366Z,1.17
2023-01-22T00:18:37.969Z,1.52
2023-01-22T00:21:05.772Z,3.90
2023-01-22T00:23:33.454Z,2.25
2023-01-22T00:26:06.339Z,1.23
2023-01-22T00:31:03.166Z,2.42
2023-01-22T00:33:31.430Z,1.75
2023-01-22T00:36:10.565Z,2.75
2023-01-22T00:38:38.630Z,1.33
2023-01-22T00:41:09.786Z,1.33
2023-01-22T00:43:41.738Z,2.28
2023-01-22T00:46:11.926Z,1.30
2023-01-22T00:48:39.856Z,1.65
2023-01-22T00:51:09.242Z,2.72
2023-01-22T00:53:37.719Z,2.33
2023-01-22T00:56:05.788Z,3.13
2023-01-22T00:58:33.889Z,2.60
2023-01-22T01:01:04.434Z,2.33
2023-01-22T01:03:34.695Z,1.58
2023-01-22T01:06:07.065Z,2.13
2023-01-22T01:08:42.334Z,1.27
2023-01-22T01:11:14.133Z,1.13
2023-01-22T01:13:43.220Z,2.40
2023-01-22T01:16:24.004Z,1.38
2023-01-22T01:18:51.634Z,1.98
2023-01-22T01:21:19.482Z,1.77
2023-01-22T01:23:47.104Z,1.23
2023-01-22T01:26:16.281Z,2.55
2023-01-22T01:28:45.562Z,0.90
2023-01-22T01:31:16.055Z,2.08
2023-01-22T01:33:44.112Z,3.03
2023-01-22T01:36:15.273Z,1.90
2023-01-22T01:38:44.057Z,4.05
2023-01-22T01:41:16.368Z,2.17
2023-01-22T01:43:44.188Z,1.40
2023-01-22T01:46:21.391Z,4.40
2023-01-22T01:48:53.004Z,0.80
2023-01-22T01:51:29.861Z,1.33
2023-01-22T01:53:59.739Z,3.88
2023-01-22T01:56:37.675Z,1.40
2023-01-22T01:59:10.612Z,0.90
2023-01-22T02:01:38.289Z,1.38
2023-01-22T02:04:06.975Z,2.63
2023-01-22T02:06:34.588Z,2.10
2023-01-22T02:09:02.796Z,1.80
2023-01-22T02:11:32.777Z,2.20
2023-01-22T02:14:08.427Z,1.73
2023-01-22T02:16:36.435Z,2.35
2023-01-22T02:19:04.490Z,3.00
2023-01-22T02:21:40.715Z,1.60
2023-01-22T02:24:11.779Z,1.60
2023-01-22T02:26:42.323Z,3.97
2023-01-22T02:29:13.175Z,2.28
2023-01-22T02:31:41.986Z,1.27
2023-01-22T02:34:10.768Z,1.45
2023-01-22T02:36:39.707Z,1.30
2023-01-22T02:39:07.658Z,1.13
2023-01-22T02:41:35.246Z,2.00
2023-01-22T02:44:03.522Z,1.55
2023-01-22T02:46:31.338Z,1.17
2023-01-22T02:48:58.966Z,2.92
2023-01-22T02:51:26.742Z,2.35
2023-01-22T02:53:54.649Z,1.58
2023-01-22T02:56:22.701Z,1.42
2023-01-22T02:58:51.076Z,1.10
2023-01-22T03:01:21.833Z,1.02
2023-01-22T03:03:54.917Z,3.22
2023-01-22T03:06:25.519Z,1.15
2023-01-22T03:09:00.024Z,2.15
2023-01-22T03:11:30.018Z,1.27
2023-01-22T03:14:16.712Z,0.90
2023-01-22T03:17:05.163Z,1.42
2023-01-22T03:19:51.341Z,1.30
2023-01-22T03:22:20.348Z,2.03
2023-01-22T03:24:52.757Z,1.15
2023-01-22T03:27:25.947Z,2.67
2023-01-22T03:29:54.384Z,3.83
2023-01-22T03:32:22.619Z,1.85
2023-01-22T03:34:51.733Z,1.02
2023-01-22T03:37:19.547Z,1.75
2023-01-22T03:39:50.980Z,1.27
2023-01-22T03:42:26.083Z,2.63
2023-01-22T03:44:53.750Z,1.00
2023-01-22T03:47:21.611Z,1.20
2023-01-22T03:49:50.253Z,1.13
2023-01-22T03:52:18.081Z,1.42
2023-01-22T03:54:46.117Z,3.00
2023-01-22T03:57:13.697Z,1.40
2023-01-22T03:59:42.704Z,0.88
2023-01-22T04:02:10.294Z,1.25
2023-01-22T04:04:50.513Z,2.40
2023-01-22T04:07:18.078Z,1.33
2023-01-22T04:09:45.618Z,1.85
2023-01-22T04:12:13.832Z,2.38
2023-01-22T04:14:42.891Z,1.27
2023-01-22T04:17:11.325Z,2.38
2023-01-22T04:19:50.723Z,1.52
2023-01-22T04:22:37.144Z,3.17
2023-01-22T04:25:06.999Z,6.82
2023-01-22T04:27:37.925Z,2.08
2023-01-22T04:30:06.715Z,1.38
2023-01-22T04:32:35.271Z,0.98
2023-01-22T04:35:23.064Z,0.88
2023-01-22T04:37:55.579Z,1.30
2023-01-22T04:40:23.976Z,3.03
2023-01-22T04:42:51.816Z,3.38
2023-01-22T04:45:19.425Z,1.65
2023-01-22T04:47:48.807Z,3.67
2023-01-22T04:50:26.579Z,2.95
2023-01-22T04:52:55.959Z,3.80
2023-01-22T04:55:24.672Z,5.10
2023-01-22T04:58:02.215Z,2.47
2023-01-22T05:00:31.161Z,2.17
2023-01-22T05:03:03.111Z,2.15
2023-01-22T05:05:32.312Z,2.05
2023-01-22T05:08:00.621Z,2.58
2023-01-22T05:10:29.716Z,1.17
2023-01-22T05:13:02.009Z,1.92
2023-01-22T05:15:30.058Z,3.05
2023-01-22T05:18:03.303Z,1.73
2023-01-22T05:20:32.575Z,1.48
2023-01-22T05:23:00.616Z,1.42
2023-01-22T05:25:29.017Z,1.75
2023-01-22T05:27:59.319Z,1.63
2023-01-22T05:30:48.260Z,1.77
2023-01-22T05:33:42.828Z,1.10
2023-01-22T05:36:14.933Z,1.95
2023-01-22T05:38:43.425Z,2.67
2023-01-22T05:41:11.886Z,10.55
2023-01-22T05:43:40.984Z,12.88
2023-01-22T05:46:12.335Z,8.13
2023-01-22T05:48:45.712Z,12.38
2023-01-22T05:51:17.519Z,5.88
2023-01-22T05:53:45.924Z,19.05
2023-01-22T05:56:14.780Z,8.10
2023-01-22T05:58:42.376Z,4.85
2023-01-22T06:01:10.933Z,3.88
2023-01-22T06:03:46.334Z,5.40
2023-01-22T06:06:18.287Z,2.45
2023-01-22T06:08:52.748Z,2.92
2023-01-22T06:11:22.298Z,3.88
2023-01-22T06:13:49.948Z,4.75
2023-01-22T06:16:21.231Z,3.00
2023-01-22T06:19:07.538Z,2.83
2023-01-22T06:21:43.787Z,1.98
2023-01-22T06:24:12.220Z,3.65
2023-01-22T06:26:39.876Z,5.95
2023-01-22T06:29:10.281Z,2.78
2023-01-22T06:31:39.354Z,4.50
2023-01-22T06:34:09.458Z,9.15
2023-01-22T06:36:37.265Z,3.20
2023-01-22T06:39:06.136Z,3.42
2023-01-22T06:41:42.210Z,2.25
2023-01-22T06:44:12.548Z,8.05
2023-01-22T06:46:40.500Z,6.15
2023-01-22T06:49:11.036Z,6.00
2023-01-22T06:51:40.931Z,5.10
2023-01-22T06:54:12.138Z,13.82
2023-01-22T06:56:39.804Z,11.43
2023-01-22T06:59:08.010Z,6.03
2023-01-22T07:01:35.650Z,6.35
2023-01-22T07:04:03.283Z,4.07
2023-01-22T07:06:30.853Z,4.47
2023-01-22T07:08:58.416Z,5.55
2023-01-22T07:11:25.988Z,3.65
2023-01-22T07:13:53.504Z,8.55
2023-01-22T07:16:21.120Z,3.13
2023-01-22T07:18:48.685Z,5.68
2023-01-22T07:21:16.313Z,2.95
2023-01-22T07:23:43.854Z,2.83
2023-01-22T07:26:11.414Z,3.90
2023-01-22T07:28:39.114Z,4.40
2023-01-22T07:31:10.433Z,3.33
2023-01-22T07:33:38.248Z,6.35
2023-01-22T07:36:06.353Z,9.05
2023-01-22T07:38:33.990Z,6.45
2023-01-22T07:41:07.263Z,8.48
2023-01-22T07:43:39.007Z,14.25
2023-01-22T07:46:07.554Z,12.65
2023-01-22T07:48:35.065Z,19.13
2023-01-22T07:51:05.434Z,16.05
2023-01-22T07:53:34.397Z,8.77
2023-01-22T07:56:02.558Z,16.17
2023-01-22T07:58:30.165Z,14.20
2023-01-22T08:00:57.786Z,5.72
2023-01-22T08:03:25.419Z,7.05
2023-01-22T08:05:52.912Z,9.73
2023-01-22T08:08:20.780Z,5.13
2023-01-22T08:10:48.849Z,7.22
2023-01-22T08:13:16.520Z,6.53
2023-01-22T08:15:44.173Z,6.78
2023-01-22T08:18:12.071Z,24.08
2023-01-22T08:20:39.584Z,11.45
2023-01-22T08:23:07.223Z,6.22
2023-01-22T08:25:34.930Z,10.52
2023-01-22T08:28:03.600Z,10.00
2023-01-22T08:30:32.929Z,8.13
2023-01-22T08:33:04.501Z,7.70
2023-01-22T08:35:32.366Z,5.72
2023-01-22T08:38:01.414Z,3.53
2023-01-22T08:40:29.015Z,5.85
2023-01-22T08:42:56.523Z,7.85
2023-01-22T08:45:24.229Z,8.32
2023-01-22T08:47:58.912Z,8.02
2023-01-22T08:50:27.839Z,20.20
2023-01-22T08:52:59.091Z,15.52
2023-01-22T08:55:29.479Z,27.00
2023-01-22T08:57:58.658Z,21.05
2023-01-22T09:00:27.540Z,10.20
2023-01-22T09:02:59.890Z,9.73
2023-01-22T09:05:28.231Z,3.38
2023-01-22T09:07:55.861Z,5.13
2023-01-22T09:10:23.710Z,8.75
2023-01-22T09:12:51.516Z,6.03
2023-01-22T09:15:19.141Z,6.95
2023-01-22T09:17:46.730Z,6.22
2023-01-22T09:20:14.294Z,11.88
2023-01-22T09:22:45.166Z,8.63
2023-01-22T09:25:12.968Z,28.55
2023-01-22T09:27:40.597Z,47.92
2023-01-22T09:30:09.740Z,34.38
2023-01-22T09:32:37.623Z,19.05
2023-01-22T09:35:05.365Z,14.90
2023-01-22T09:37:32.939Z,6.00
2023-01-22T09:40:00.546Z,6.68
2023-01-22T09:42:36.748Z,9.45
2023-01-22T09:45:11.577Z,8.20
2023-01-22T09:47:43.763Z,8.52
2023-01-22T09:50:28.373Z,18.52
2023-01-22T09:53:00.809Z,11.07
2023-01-22T09:55:32.374Z,4.82
2023-01-22T09:58:03.000Z,11.70
2023-01-22T10:00:39.681Z,26.40
2023-01-22T10:03:22.863Z,13.30
2023-01-22T10:05:57.963Z,11.95
2023-01-22T10:08:59.344Z,10.60
2023-01-22T10:11:26.946Z,8.48
2023-01-22T10:13:58.124Z,5.93
2023-01-22T10:16:26.191Z,5.10
2023-01-22T10:19:12.649Z,5.30
2023-01-22T10:21:47.554Z,5.70
2023-01-22T10:24:15.330Z,7.22
2023-01-22T10:26:46.054Z,7.10
2023-01-22T10:29:26.025Z,13.90
2023-01-22T10:32:00.848Z,43.03
2023-01-22T10:34:36.319Z,9.77
2023-01-22T10:37:14.725Z,14.93
2023-01-22T10:39:45.063Z,10.40
2023-01-22T10:42:20.894Z,16.70
2023-01-22T10:44:48.881Z,12.23
2023-01-22T10:47:21.731Z,19.17
2023-01-22T10:52:51.598Z,5.88
2023-01-22T10:55:30.181Z,4.53
2023-01-22T10:58:16.239Z,4.93
2023-01-22T11:00:51.746Z,15.45
2023-01-22T11:03:30.092Z,67.43
2023-01-22T11:06:11.475Z,22.42
2023-01-22T11:08:58.628Z,12.00
2023-01-22T11:11:37.940Z,6.88
2023-01-22T11:14:12.131Z,7.13
2023-01-22T11:16:41.005Z,38.60
2023-01-22T11:19:36.097Z,16.65
2023-01-22T11:22:14.566Z,5.93
2023-01-22T11:24:49.931Z,4.85
2023-01-22T11:27:42.454Z,7.75
2023-01-22T11:30:22.139Z,6.15
2023-01-22T11:33:10.185Z,8.18
2023-01-22T11:36:03.301Z,8.30
2023-01-22T11:38:51.333Z,10.95
2023-01-22T11:41:55.424Z,5.30
2023-01-22T11:44:31.247Z,12.13
2023-01-22T11:47:36.460Z,10.85
2023-01-22T11:50:10.955Z,11.20
2023-01-22T11:52:57.222Z,14.50
2023-01-22T11:55:55.869Z,12.23
2023-01-22T11:58:47.575Z,8.85
2023-01-22T12:01:39.614Z,6.15
2023-01-22T12:04:45.439Z,8.30
2023-01-22T12:07:29.180Z,11.60
2023-01-22T12:09:57.073Z,18.50
2023-01-22T12:12:34.585Z,8.95
2023-01-22T12:15:23.511Z,22.75
2023-01-22T12:18:18.501Z,14.45
2023-01-22T12:21:17.937Z,36.92
2023-01-22T12:24:06.699Z,10.52
2023-01-22T12:26:39.492Z,10.73
2023-01-22T12:31:54.114Z,9.85
2023-01-22T12:34:40.749Z,11.30
2023-01-22T12:37:15.222Z,7.55
2023-01-22T12:40:10.307Z,10.40
2023-01-22T12:42:47.328Z,8.77
2023-01-22T12:45:41.685Z,10.65
2023-01-22T12:48:23.081Z,8.80
2023-01-22T12:50:56.839Z,10.95
2023-01-22T12:53:34.793Z,13.57
2023-01-22T12:56:06.345Z,10.30
2023-01-22T12:58:37.710Z,13.38
2023-01-22T13:01:11.409Z,11.63
2023-01-22T13:03:41.649Z,7.93
2023-01-22T13:06:22.548Z,9.68
2023-01-22T13:08:50.336Z,14.85
2023-01-22T13:11:41.337Z,7.93
2023-01-22T13:14:22.675Z,12.77
2023-01-22T13:16:59.897Z,7.15
2023-01-22T13:19:38.870Z,7.93
2023-01-22T13:22:11.129Z,5.90
2023-01-22T13:24:53.105Z,11.40
2023-01-22T13:27:34.724Z,9.82
2023-01-22T13:30:21.932Z,8.70
2023-01-22T13:32:50.250Z,32.42
2023-01-22T13:35:19.997Z,39.15
2023-01-22T13:37:51.991Z,21.30
2023-01-22T13:40:37.107Z,26.13
2023-01-22T13:43:20.883Z,8.10
2023-01-22T13:45:54.649Z,7.22
2023-01-22T13:48:25.592Z,10.88
2023-01-22T13:51:00.587Z,7.68
2023-01-22T13:53:40.826Z,8.32
2023-01-22T13:56:19.795Z,8.30
2023-01-22T13:58:49.632Z,19.55
2023-01-22T14:01:30.699Z,13.52
2023-01-22T14:04:05.240Z,9.85
2023-01-22T14:06:45.357Z,11.23
2023-01-22T14:09:13.852Z,11.15
2023-01-22T14:11:42.419Z,10.20
2023-01-22T14:14:18.651Z,9.70
2023-01-22T14:16:48.082Z,6.63
2023-01-22T14:19:16.245Z,9.30
2023-01-22T14:21:44.507Z,10.73
2023-01-22T14:24:12.926Z,6.65
2023-01-22T14:26:43.579Z,12.63
2023-01-22T14:29:11.988Z,8.52
2023-01-22T14:31:40.329Z,10.10
2023-01-22T14:34:11.348Z,6.78
2023-01-22T14:36:39.994Z,24.25
2023-01-22T14:39:08.133Z,23.95
2023-01-22T14:41:38.197Z,13.70
2023-01-22T14:44:09.611Z,12.85
2023-01-22T14:46:38.594Z,23.48
2023-01-22T14:49:08.328Z,15.93
2023-01-22T14:51:36.719Z,14.13
2023-01-22T14:54:04.859Z,9.48
2023-01-22T14:56:33.198Z,6.30
2023-01-22T14:59:01.538Z,7.65
2023-01-22T15:01:29.914Z,8.40
2023-01-22T15:03:58.636Z,10.43
2023-01-22T15:06:27.455Z,9.73
2023-01-22T15:08:55.506Z,36.20
2023-01-22T15:11:24.155Z,17.88
2023-01-22T15:13:55.277Z,12.23
2023-01-22T15:16:25.911Z,21.30
2023-01-22T15:18:56.757Z,18.00
2023-01-22T15:21:25.271Z,15.63
2023-01-22T15:23:55.451Z,14.25
2023-01-22T15:26:27.109Z,11.00
2023-01-22T15:28:55.537Z,14.53
2023-01-22T15:31:24.132Z,8.98
2023-01-22T15:33:53.494Z,10.48
2023-01-22T15:36:21.695Z,13.38
2023-01-22T15:38:50.328Z,8.40
2023-01-22T15:41:29.323Z,9.90
2023-01-22T15:44:01.937Z,11.02
2023-01-22T15:46:34.325Z,14.63
2023-01-22T15:49:04.858Z,44.97
2023-01-22T15:51:33.691Z,35.22
2023-01-22T15:54:04.763Z,39.25
2023-01-22T15:56:36.353Z,30.02
2023-01-22T15:59:05.936Z,21.90
2023-01-22T16:01:36.308Z,14.43
2023-01-22T16:04:05.381Z,13.32
2023-01-22T16:06:35.302Z,10.82
2023-01-22T16:09:06.305Z,15.10
2023-01-22T16:11:35.961Z,10.65
2023-01-22T16:14:05.440Z,13.55
2023-01-22T16:16:37.860Z,12.40
2023-01-22T16:19:08.304Z,13.40
2023-01-22T16:21:36.812Z,15.10
2023-01-22T16:24:06.029Z,22.52
2023-01-22T16:26:35.505Z,20.13
2023-01-22T16:29:07.370Z,16.98
2023-01-22T16:31:37.563Z,18.80
2023-01-22T16:34:14.635Z,41.97
2023-01-22T16:36:44.603Z,44.33
2023-01-22T16:39:21.841Z,47.08
2023-01-22T16:41:51.952Z,27.40
2023-01-22T16:44:27.562Z,131.85
2023-01-22T16:47:00.696Z,98.22
2023-01-22T16:49:34.197Z,118.90
2023-01-22T16:52:21.858Z,50.97
2023-01-22T16:54:52.452Z,29.90
2023-01-22T16:57:21.439Z,100.47
2023-01-22T16:59:50.335Z,43.50
2023-01-22T17:02:20.619Z,29.30
2023-01-22T17:04:52.491Z,15.60
2023-01-22T17:07:33.111Z,13.50
2023-01-22T17:10:04.260Z,10.70
2023-01-22T17:12:33.309Z,13.25
2023-01-22T17:15:02.544Z,9.15
2023-01-22T17:17:31.960Z,9.85
2023-01-22T17:20:01.110Z,9.77
2023-01-22T17:22:30.189Z,10.98
2023-01-22T17:24:59.251Z,17.05
2023-01-22T17:27:28.747Z,19.02
2023-01-22T17:29:57.416Z,16.85
2023-01-22T17:32:27.381Z,13.82
2023-01-22T17:34:56.257Z,11.65
2023-01-22T17:37:25.920Z,49.10
2023-01-22T17:39:55.009Z,72.53
2023-01-22T17:42:25.173Z,140.70
2023-01-22T17:44:55.683Z,85.38
2023-01-22T17:47:27.496Z,99.70
2023-01-22T17:49:57.286Z,84.70
2023-01-22T17:52:27.439Z,25.45
2023-01-22T17:54:57.554Z,23.45
2023-01-22T17:57:27.776Z,21.35
2023-01-22T17:59:56.664Z,86.10
2023-01-22T18:02:25.729Z,36.28
2023-01-22T18:04:55.892Z,85.53
2023-01-22T18:07:24.948Z,124.40
2023-01-22T18:09:53.919Z,110.15
2023-01-22T18:12:22.805Z,61.85
2023-01-22T18:14:52.159Z,56.90
2023-01-22T18:17:22.416Z,48.40
2023-01-22T18:19:53.231Z,55.13
2023-01-22T18:22:22.504Z,39.53
2023-01-22T18:24:52.345Z,32.78
2023-01-22T18:27:21.534Z,28.85
2023-01-22T18:29:50.427Z,38.38
2023-01-22T18:32:19.482Z,99.38
2023-01-22T18:34:48.057Z,61.50
2023-01-22T18:37:16.602Z,39.58
2023-01-22T18:39:45.429Z,56.80
2023-01-22T18:42:14.223Z,61.08
2023-01-22T18:44:43.064Z,56.42
2023-01-22T18:47:11.911Z,76.70
2023-01-22T18:49:41.261Z,55.08
2023-01-22T18:52:10.425Z,35.78
2023-01-22T18:54:39.741Z,40.22
2023-01-22T18:57:08.549Z,32.03
2023-01-22T18:59:38.749Z,26.77
2023-01-22T19:02:13.165Z,24.40
2023-01-22T19:07:10.747Z,14.25
2023-01-22T19:09:41.565Z,9.52
2023-01-22T19:12:14.166Z,11.25
2023-01-22T19:14:43.626Z,13.30
2023-01-22T19:17:12.778Z,11.13
2023-01-22T19:19:42.073Z,14.38
2023-01-22T19:22:12.124Z,10.88
2023-01-22T19:24:41.020Z,11.23
2023-01-22T19:27:10.341Z,13.20
2023-01-22T19:29:39.770Z,14.65
2023-01-22T19:32:12.605Z,15.40
2023-01-22T19:37:12.103Z,11.48
2023-01-22T19:39:43.352Z,24.50
2023-01-22T19:42:12.157Z,19.67
2023-01-22T19:44:42.521Z,24.73
2023-01-22T19:47:16.262Z,16.13
2023-01-22T19:49:45.560Z,20.48
2023-01-22T19:52:15.117Z,14.30
2023-01-22T19:54:47.953Z,8.85
2023-01-22T19:59:57.442Z,11.63
2023-01-22T20:02:27.166Z,14.80
2023-01-22T20:04:56.370Z,8.45
2023-01-22T20:07:25.804Z,12.77
2023-01-22T20:09:55.383Z,12.35
2023-01-22T20:12:24.229Z,12.60
2023-01-22T20:14:52.894Z,11.15
2023-01-22T20:17:21.993Z,11.15
2023-01-22T20:19:53.022Z,9.23
2023-01-22T20:22:25.428Z,8.52
2023-01-22T20:24:55.879Z,11.45
2023-01-22T20:27:25.479Z,10.07
2023-01-22T20:29:54.418Z,8.75
2023-01-22T20:32:24.418Z,12.00
2023-01-22T20:34:54.957Z,10.10
2023-01-22T20:37:24.253Z,10.65
2023-01-22T20:39:56.463Z,8.73
2023-01-22T20:42:24.945Z,12.73
2023-01-22T20:44:57.013Z,10.68
2023-01-22T20:47:27.135Z,13.77
2023-01-22T20:49:55.825Z,11.05
2023-01-22T20:52:25.067Z,8.27
2023-01-22T20:55:01.945Z,11.93
2023-01-22T20:57:32.916Z,10.85
2023-01-22T21:00:01.936Z,9.73
2023-01-22T21:02:30.498Z,9.95
2023-01-22T21:05:00.222Z,9.70
2023-01-22T21:07:28.638Z,9.48
2023-01-22T21:09:57.323Z,11.00
2023-01-22T21:12:26.209Z,12.50
2023-01-22T21:14:56.032Z,10.73
2023-01-22T21:17:26.216Z,8.43
2023-01-22T21:19:57.031Z,15.48
2023-01-22T21:22:27.265Z,9.13
2023-01-22T21:24:55.595Z,13.63
2023-01-22T21:27:25.735Z,20.45
2023-01-22T21:29:55.608Z,15.65
2023-01-22T21:32:24.048Z,9.68
2023-01-22T21:34:52.395Z,9.30
2023-01-22T21:37:21.782Z,6.63
2023-01-22T21:39:49.706Z,11.23
2023-01-22T21:42:36.212Z,14.57
2023-01-22T21:45:22.842Z,10.65
2023-01-22T21:47:50.776Z,15.10
2023-01-22T21:50:18.849Z,16.30
2023-01-22T21:52:48.965Z,13.93
2023-01-22T21:55:16.814Z,16.98
2023-01-22T21:57:44.393Z,11.60
2023-01-22T22:00:12.720Z,12.20
2023-01-22T22:02:40.354Z,12.93
2023-01-22T22:05:08.408Z,10.73
2023-01-22T22:07:35.967Z,13.05
2023-01-22T22:10:04.660Z,7.65
2023-01-22T22:12:32.556Z,10.10
2023-01-22T22:15:00.412Z,15.10
2023-01-22T22:17:28.019Z,13.27
2023-01-22T22:19:55.621Z,13.48
2023-01-22T22:22:23.667Z,13.00
2023-01-22T22:24:51.390Z,13.23
2023-01-22T22:27:18.912Z,10.93
2023-01-22T22:29:46.553Z,8.20
2023-01-22T22:32:14.097Z,9.30
2023-01-22T22:34:42.325Z,9.88
2023-01-22T22:37:09.992Z,9.05
2023-01-22T22:39:38.954Z,8.90
2023-01-22T22:42:06.598Z,6.47
2023-01-22T22:44:37.555Z,8.60
2023-01-22T22:47:05.764Z,8.40
2023-01-22T22:49:33.297Z,9.45
2023-01-22T22:52:00.894Z,7.45
2023-01-22T22:54:28.430Z,7.38
2023-01-22T22:56:55.969Z,8.07
2023-01-22T22:59:23.610Z,5.63
2023-01-22T23:01:51.311Z,10.13
2023-01-22T23:04:18.969Z,8.02
2023-01-22T23:06:47.303Z,7.00
2023-01-22T23:09:17.908Z,5.22
2023-01-22T23:11:46.182Z,6.75
2023-01-22T23:14:13.805Z,7.97
2023-01-22T23:16:43.058Z,8.70
2023-01-22T23:19:21.000Z,5.63
2023-01-22T23:22:06.933Z,7.97
2023-01-22T23:24:34.682Z,6.18
2023-01-22T23:27:02.278Z,6.25
2023-01-22T23:29:29.942Z,6.47
2023-01-22T23:31:57.708Z,4.75
2023-01-22T23:34:25.328Z,9.60
2023-01-22T23:36:52.963Z,6.65
2023-01-22T23:39:21.643Z,5.25
2023-01-22T23:41:49.527Z,8.60
2023-01-22T23:44:17.206Z,6.47
2023-01-22T23:46:45.792Z,3.90
2023-01-22T23:49:13.464Z,4.00
2023-01-22T23:51:43.673Z,3.53
2023-01-22T23:54:11.320Z,5.00
2023-01-22T23:56:39.021Z,4.15
2023-01-22T23:59:06.542Z,4.82
